sensor_id;sensor_type;location;lat;lon;timestamp;temperature;humidity
67101;DHT22;54019;61.746;16.106;2022-10-13T00:01:15;22.10;34.20
67101;DHT22;54019;61.746;16.106;2022-10-13T00:03:42;22.10;34.20
67101;DHT22;54019;61.746;16.106;2022-10-13T00:06:10;22.20;34.20
67101;DHT22;54019;61.746;16.106;2022-10-13T00:08:36;22.10;34.20
67101;DHT22;54019;61.746;16.106;2022-10-13T00:11:08;22.20;34.20
67101;DHT22;54019;61.746;16.106;2022-10-13T00:13:35;22.10;34.30
67101;DHT22;54019;61.746;16.106;2022-10-13T00:16:02;22.20;34.30
67101;DHT22;54019;61.746;16.106;2022-10-13T00:18:29;22.10;34.30
67101;DHT22;54019;61.746;16.106;2022-10-13T00:20:55;22.10;34.30
67101;DHT22;54019;61.746;16.106;2022-10-13T00:23:20;22.10;34.30
67101;DHT22;54019;61.746;16.106;2022-10-13T00:25:47;22.10;34.40
67101;DHT22;54019;61.746;16.106;2022-10-13T00:28:15;22.10;34.40
67101;DHT22;54019;61.746;16.106;2022-10-13T00:30:41;22.10;34.40
67101;DHT22;54019;61.746;16.106;2022-10-13T00:33:08;22.10;34.50
67101;DHT22;54019;61.746;16.106;2022-10-13T00:35:39;22.10;34.50
67101;DHT22;54019;61.746;16.106;2022-10-13T00:38:05;22.10;34.50
67101;DHT22;54019;61.746;16.106;2022-10-13T00:40:31;22.10;34.60
67101;DHT22;54019;61.746;16.106;2022-10-13T00:42:57;22.10;34.70
67101;DHT22;54019;61.746;16.106;2022-10-13T00:45:24;22.10;34.60
67101;DHT22;54019;61.746;16.106;2022-10-13T00:47:53;22.10;34.80
67101;DHT22;54019;61.746;16.106;2022-10-13T00:50:23;22.10;34.80
67101;DHT22;54019;61.746;16.106;2022-10-13T00:52:52;22.10;34.60
67101;DHT22;54019;61.746;16.106;2022-10-13T00:55:21;22.10;34.60
67101;DHT22;54019;61.746;16.106;2022-10-13T00:57:50;22.10;34.60
67101;DHT22;54019;61.746;16.106;2022-10-13T01:00:17;22.10;34.60
67101;DHT22;54019;61.746;16.106;2022-10-13T01:02:43;22.00;34.50
67101;DHT22;54019;61.746;16.106;2022-10-13T01:05:09;22.10;34.70
67101;DHT22;54019;61.746;16.106;2022-10-13T01:07:35;22.10;34.70
67101;DHT22;54019;61.746;16.106;2022-10-13T01:10:03;22.10;34.70
67101;DHT22;54019;61.746;16.106;2022-10-13T01:12:39;22.00;34.70
67101;DHT22;54019;61.746;16.106;2022-10-13T01:15:12;22.00;34.70
67101;DHT22;54019;61.746;16.106;2022-10-13T01:17:48;22.00;34.70
67101;DHT22;54019;61.746;16.106;2022-10-13T01:20:46;22.00;34.70
67101;DHT22;54019;61.746;16.106;2022-10-13T01:23:29;22.00;34.70
67101;DHT22;54019;61.746;16.106;2022-10-13T01:26:21;22.00;34.80
67101;DHT22;54019;61.746;16.106;2022-10-13T01:28:56;22.00;34.80
67101;DHT22;54019;61.746;16.106;2022-10-13T01:31:32;22.00;34.80
67101;DHT22;54019;61.746;16.106;2022-10-13T01:34:04;22.00;34.80
67101;DHT22;54019;61.746;16.106;2022-10-13T01:36:39;22.00;34.80
67101;DHT22;54019;61.746;16.106;2022-10-13T01:39:12;22.00;34.90
67101;DHT22;54019;61.746;16.106;2022-10-13T01:41:43;22.00;34.90
67101;DHT22;54019;61.746;16.106;2022-10-13T01:44:14;22.00;34.80
67101;DHT22;54019;61.746;16.106;2022-10-13T01:46:44;22.00;34.90
67101;DHT22;54019;61.746;16.106;2022-10-13T01:49:13;22.00;34.80
67101;DHT22;54019;61.746;16.106;2022-10-13T01:51:41;22.00;34.90
67101;DHT22;54019;61.746;16.106;2022-10-13T01:54:09;22.00;34.90
67101;DHT22;54019;61.746;16.106;2022-10-13T01:56:35;22.00;34.80
67101;DHT22;54019;61.746;16.106;2022-10-13T01:59:04;22.00;34.90
67101;DHT22;54019;61.746;16.106;2022-10-13T02:01:38;22.00;35.50
67101;DHT22;54019;61.746;16.106;2022-10-13T02:04:20;22.00;35.50
67101;DHT22;54019;61.746;16.106;2022-10-13T02:06:52;22.00;35.00
67101;DHT22;54019;61.746;16.106;2022-10-13T02:09:22;22.00;35.10
67101;DHT22;54019;61.746;16.106;2022-10-13T02:11:54;22.00;35.00
67101;DHT22;54019;61.746;16.106;2022-10-13T02:14:24;22.00;35.00
67101;DHT22;54019;61.746;16.106;2022-10-13T02:16:52;21.90;35.00
67101;DHT22;54019;61.746;16.106;2022-10-13T02:19:20;22.00;35.10
67101;DHT22;54019;61.746;16.106;2022-10-13T02:21:48;21.90;35.10
67101;DHT22;54019;61.746;16.106;2022-10-13T02:24:16;22.00;35.10
67101;DHT22;54019;61.746;16.106;2022-10-13T02:26:43;22.00;35.10
67101;DHT22;54019;61.746;16.106;2022-10-13T02:29:13;21.90;35.10
67101;DHT22;54019;61.746;16.106;2022-10-13T02:31:40;21.90;35.10
67101;DHT22;54019;61.746;16.106;2022-10-13T02:34:09;21.90;35.10
67101;DHT22;54019;61.746;16.106;2022-10-13T02:36:37;21.90;35.20
67101;DHT22;54019;61.746;16.106;2022-10-13T02:39:05;21.90;35.20
67101;DHT22;54019;61.746;16.106;2022-10-13T02:41:32;21.90;35.20
67101;DHT22;54019;61.746;16.106;2022-10-13T02:43:58;21.90;35.20
67101;DHT22;54019;61.746;16.106;2022-10-13T02:46:24;21.90;35.20
67101;DHT22;54019;61.746;16.106;2022-10-13T02:48:49;21.90;35.10
67101;DHT22;54019;61.746;16.106;2022-10-13T02:51:15;21.90;35.00
67101;DHT22;54019;61.746;16.106;2022-10-13T02:53:43;21.90;35.70
67101;DHT22;54019;61.746;16.106;2022-10-13T02:56:08;21.90;35.10
67101;DHT22;54019;61.746;16.106;2022-10-13T02:58:35;21.90;35.10
67101;DHT22;54019;61.746;16.106;2022-10-13T03:01:05;21.90;35.10
67101;DHT22;54019;61.746;16.106;2022-10-13T03:03:31;21.90;35.10
67101;DHT22;54019;61.746;16.106;2022-10-13T03:05:56;21.90;35.20
67101;DHT22;54019;61.746;16.106;2022-10-13T03:08:23;21.90;35.30
67101;DHT22;54019;61.746;16.106;2022-10-13T03:10:51;21.90;35.40
67101;DHT22;54019;61.746;16.106;2022-10-13T03:13:17;21.90;35.20
67101;DHT22;54019;61.746;16.106;2022-10-13T03:15:42;21.90;35.20
67101;DHT22;54019;61.746;16.106;2022-10-13T03:18:08;21.90;35.20
67101;DHT22;54019;61.746;16.106;2022-10-13T03:20:34;21.90;35.20
67101;DHT22;54019;61.746;16.106;2022-10-13T03:23:00;21.90;35.30
67101;DHT22;54019;61.746;16.106;2022-10-13T03:25:27;21.90;35.30
67101;DHT22;54019;61.746;16.106;2022-10-13T03:27:56;21.90;35.30
67101;DHT22;54019;61.746;16.106;2022-10-13T03:30:21;21.80;35.20
67101;DHT22;54019;61.746;16.106;2022-10-13T03:32:47;21.80;35.20
67101;DHT22;54019;61.746;16.106;2022-10-13T03:35:13;21.80;35.20
67101;DHT22;54019;61.746;16.106;2022-10-13T03:37:39;21.80;35.20
67101;DHT22;54019;61.746;16.106;2022-10-13T03:40:06;21.80;35.20
67101;DHT22;54019;61.746;16.106;2022-10-13T03:42:34;21.80;35.20
67101;DHT22;54019;61.746;16.106;2022-10-13T03:45:02;21.80;35.20
67101;DHT22;54019;61.746;16.106;2022-10-13T03:47:28;21.80;35.20
67101;DHT22;54019;61.746;16.106;2022-10-13T03:49:54;21.80;35.20
67101;DHT22;54019;61.746;16.106;2022-10-13T03:52:21;21.80;35.30
67101;DHT22;54019;61.746;16.106;2022-10-13T03:54:48;21.80;35.30
67101;DHT22;54019;61.746;16.106;2022-10-13T03:57:14;21.90;35.10
67101;DHT22;54019;61.746;16.106;2022-10-13T03:59:40;21.90;35.00
67101;DHT22;54019;61.746;16.106;2022-10-13T04:02:09;21.90;35.00
67101;DHT22;54019;61.746;16.106;2022-10-13T04:04:36;21.90;34.90
67101;DHT22;54019;61.746;16.106;2022-10-13T04:07:02;21.90;35.00
67101;DHT22;54019;61.746;16.106;2022-10-13T04:09:28;21.90;35.00
67101;DHT22;54019;61.746;16.106;2022-10-13T04:11:54;21.90;35.10
67101;DHT22;54019;61.746;16.106;2022-10-13T04:14:20;21.90;35.00
67101;DHT22;54019;61.746;16.106;2022-10-13T04:16:46;21.90;35.00
67101;DHT22;54019;61.746;16.106;2022-10-13T04:19:14;21.90;35.10
67101;DHT22;54019;61.746;16.106;2022-10-13T04:21:41;21.90;35.10
67101;DHT22;54019;61.746;16.106;2022-10-13T04:24:08;21.90;35.10
67101;DHT22;54019;61.746;16.106;2022-10-13T04:26:35;21.90;34.90
67101;DHT22;54019;61.746;16.106;2022-10-13T04:29:03;21.90;35.00
67101;DHT22;54019;61.746;16.106;2022-10-13T04:31:29;21.80;35.00
67101;DHT22;54019;61.746;16.106;2022-10-13T04:33:56;21.80;35.10
67101;DHT22;54019;61.746;16.106;2022-10-13T04:36:23;21.90;35.10
67101;DHT22;54019;61.746;16.106;2022-10-13T04:38:49;21.90;35.50
67101;DHT22;54019;61.746;16.106;2022-10-13T04:41:16;21.90;35.80
67101;DHT22;54019;61.746;16.106;2022-10-13T04:43:45;21.90;34.90
67101;DHT22;54019;61.746;16.106;2022-10-13T04:46:13;22.00;34.90
67101;DHT22;54019;61.746;16.106;2022-10-13T04:48:39;22.00;34.80
67101;DHT22;54019;61.746;16.106;2022-10-13T04:51:07;22.10;34.60
67101;DHT22;54019;61.746;16.106;2022-10-13T04:53:35;22.10;35.20
67101;DHT22;54019;61.746;16.106;2022-10-13T04:56:03;22.20;34.40
67101;DHT22;54019;61.746;16.106;2022-10-13T04:58:29;22.10;34.40
67101;DHT22;54019;61.746;16.106;2022-10-13T05:00:55;22.20;34.40
67101;DHT22;54019;61.746;16.106;2022-10-13T05:03:21;22.10;34.60
67101;DHT22;54019;61.746;16.106;2022-10-13T05:05:47;22.10;34.60
67101;DHT22;54019;61.746;16.106;2022-10-13T05:08:13;22.10;34.80
67101;DHT22;54019;61.746;16.106;2022-10-13T05:10:40;22.10;34.90
67101;DHT22;54019;61.746;16.106;2022-10-13T05:13:06;22.00;34.80
67101;DHT22;54019;61.746;16.106;2022-10-13T05:15:32;22.10;35.00
67101;DHT22;54019;61.746;16.106;2022-10-13T05:17:58;22.00;35.00
67101;DHT22;54019;61.746;16.106;2022-10-13T05:20:24;22.00;35.10
67101;DHT22;54019;61.746;16.106;2022-10-13T05:22:50;22.00;35.10
67101;DHT22;54019;61.746;16.106;2022-10-13T05:25:16;22.00;35.80
67101;DHT22;54019;61.746;16.106;2022-10-13T05:27:43;22.10;36.10
67101;DHT22;54019;61.746;16.106;2022-10-13T05:30:10;22.10;36.40
67101;DHT22;54019;61.746;16.106;2022-10-13T05:32:36;22.10;36.50
67101;DHT22;54019;61.746;16.106;2022-10-13T05:35:02;22.10;36.60
67101;DHT22;54019;61.746;16.106;2022-10-13T05:37:28;22.10;36.70
67101;DHT22;54019;61.746;16.106;2022-10-13T05:39:54;22.10;36.60
67101;DHT22;54019;61.746;16.106;2022-10-13T05:42:20;22.10;36.70
67101;DHT22;54019;61.746;16.106;2022-10-13T05:44:47;22.10;37.10
67101;DHT22;54019;61.746;16.106;2022-10-13T05:47:13;22.10;37.00
67101;DHT22;54019;61.746;16.106;2022-10-13T05:49:39;22.10;37.10
67101;DHT22;54019;61.746;16.106;2022-10-13T05:52:07;22.20;36.90
67101;DHT22;54019;61.746;16.106;2022-10-13T05:54:35;22.20;37.40
67101;DHT22;54019;61.746;16.106;2022-10-13T05:57:05;22.30;37.10
67101;DHT22;54019;61.746;16.106;2022-10-13T05:59:33;22.30;37.20
67101;DHT22;54019;61.746;16.106;2022-10-13T06:02:04;22.50;37.10
67101;DHT22;54019;61.746;16.106;2022-10-13T06:04:33;22.60;37.10
67101;DHT22;54019;61.746;16.106;2022-10-13T06:07:00;22.60;37.00
67101;DHT22;54019;61.746;16.106;2022-10-13T06:09:28;22.60;36.90
67101;DHT22;54019;61.746;16.106;2022-10-13T06:11:56;22.70;36.70
67101;DHT22;54019;61.746;16.106;2022-10-13T06:14:22;22.70;36.70
67101;DHT22;54019;61.746;16.106;2022-10-13T06:16:48;22.70;36.70
67101;DHT22;54019;61.746;16.106;2022-10-13T06:19:15;22.70;36.80
67101;DHT22;54019;61.746;16.106;2022-10-13T06:21:41;22.70;36.80
67101;DHT22;54019;61.746;16.106;2022-10-13T06:24:07;22.70;37.00
67101;DHT22;54019;61.746;16.106;2022-10-13T06:26:33;22.70;36.70
67101;DHT22;54019;61.746;16.106;2022-10-13T06:28:58;22.70;36.90
67101;DHT22;54019;61.746;16.106;2022-10-13T06:31:24;22.70;36.90
67101;DHT22;54019;61.746;16.106;2022-10-13T06:33:50;22.70;37.00
67101;DHT22;54019;61.746;16.106;2022-10-13T06:36:17;22.70;37.20
67101;DHT22;54019;61.746;16.106;2022-10-13T06:38:43;22.70;36.80
67101;DHT22;54019;61.746;16.106;2022-10-13T06:41:09;22.70;37.00
67101;DHT22;54019;61.746;16.106;2022-10-13T06:43:35;22.70;37.10
67101;DHT22;54019;61.746;16.106;2022-10-13T06:46:01;22.60;36.60
67101;DHT22;54019;61.746;16.106;2022-10-13T06:48:27;22.70;36.80
67101;DHT22;54019;61.746;16.106;2022-10-13T06:50:53;22.60;36.80
67101;DHT22;54019;61.746;16.106;2022-10-13T06:53:20;22.70;36.80
67101;DHT22;54019;61.746;16.106;2022-10-13T06:55:46;22.70;36.70
67101;DHT22;54019;61.746;16.106;2022-10-13T06:58:12;22.70;36.30
67101;DHT22;54019;61.746;16.106;2022-10-13T07:00:40;22.60;36.60
67101;DHT22;54019;61.746;16.106;2022-10-13T07:03:06;22.70;36.80
67101;DHT22;54019;61.746;16.106;2022-10-13T07:05:31;22.60;37.30
67101;DHT22;54019;61.746;16.106;2022-10-13T07:07:57;22.60;36.60
67101;DHT22;54019;61.746;16.106;2022-10-13T07:10:24;22.70;36.40
67101;DHT22;54019;61.746;16.106;2022-10-13T07:12:50;22.70;36.20
67101;DHT22;54019;61.746;16.106;2022-10-13T07:15:16;22.80;36.00
67101;DHT22;54019;61.746;16.106;2022-10-13T07:17:42;22.90;36.20
67101;DHT22;54019;61.746;16.106;2022-10-13T07:20:08;22.90;35.90
67101;DHT22;54019;61.746;16.106;2022-10-13T07:22:34;22.90;35.90
67101;DHT22;54019;61.746;16.106;2022-10-13T07:25:00;22.90;35.90
67101;DHT22;54019;61.746;16.106;2022-10-13T07:27:28;22.90;35.80
67101;DHT22;54019;61.746;16.106;2022-10-13T07:29:53;22.90;35.70
67101;DHT22;54019;61.746;16.106;2022-10-13T07:32:19;22.90;35.80
67101;DHT22;54019;61.746;16.106;2022-10-13T07:34:45;22.80;36.10
67101;DHT22;54019;61.746;16.106;2022-10-13T07:37:11;22.90;36.10
67101;DHT22;54019;61.746;16.106;2022-10-13T07:39:37;22.80;35.80
67101;DHT22;54019;61.746;16.106;2022-10-13T07:42:03;22.80;36.10
67101;DHT22;54019;61.746;16.106;2022-10-13T07:44:30;22.80;36.10
67101;DHT22;54019;61.746;16.106;2022-10-13T07:46:56;22.80;36.10
67101;DHT22;54019;61.746;16.106;2022-10-13T07:49:22;22.80;36.00
67101;DHT22;54019;61.746;16.106;2022-10-13T07:51:48;22.90;36.00
67101;DHT22;54019;61.746;16.106;2022-10-13T07:54:14;22.80;35.80
67101;DHT22;54019;61.746;16.106;2022-10-13T07:56:40;22.90;35.90
67101;DHT22;54019;61.746;16.106;2022-10-13T07:59:05;22.80;36.00
67101;DHT22;54019;61.746;16.106;2022-10-13T08:01:33;22.80;36.10
67101;DHT22;54019;61.746;16.106;2022-10-13T08:03:58;22.80;36.00
67101;DHT22;54019;61.746;16.106;2022-10-13T08:06:24;22.70;36.20
67101;DHT22;54019;61.746;16.106;2022-10-13T08:08:51;22.70;36.20
67101;DHT22;54019;61.746;16.106;2022-10-13T08:11:17;22.70;36.10
67101;DHT22;54019;61.746;16.106;2022-10-13T08:13:46;22.60;36.10
67101;DHT22;54019;61.746;16.106;2022-10-13T08:16:12;22.60;36.20
67101;DHT22;54019;61.746;16.106;2022-10-13T08:18:39;22.70;36.20
67101;DHT22;54019;61.746;16.106;2022-10-13T08:21:05;22.60;36.20
67101;DHT22;54019;61.746;16.106;2022-10-13T08:23:31;22.60;35.90
67101;DHT22;54019;61.746;16.106;2022-10-13T08:25:57;22.60;36.20
67101;DHT22;54019;61.746;16.106;2022-10-13T08:28:25;22.50;36.20
67101;DHT22;54019;61.746;16.106;2022-10-13T08:30:51;22.50;36.20
67101;DHT22;54019;61.746;16.106;2022-10-13T08:33:17;22.50;36.70
67101;DHT22;54019;61.746;16.106;2022-10-13T08:35:44;22.60;36.00
67101;DHT22;54019;61.746;16.106;2022-10-13T08:38:10;22.60;35.80
67101;DHT22;54019;61.746;16.106;2022-10-13T08:40:37;22.70;35.90
67101;DHT22;54019;61.746;16.106;2022-10-13T08:43:05;22.70;35.90
67101;DHT22;54019;61.746;16.106;2022-10-13T08:45:31;22.70;35.70
67101;DHT22;54019;61.746;16.106;2022-10-13T08:47:59;22.70;35.60
67101;DHT22;54019;61.746;16.106;2022-10-13T08:50:30;22.70;35.70
67101;DHT22;54019;61.746;16.106;2022-10-13T08:53:00;22.70;35.50
67101;DHT22;54019;61.746;16.106;2022-10-13T08:55:29;22.70;35.80
67101;DHT22;54019;61.746;16.106;2022-10-13T08:57:56;22.70;35.40
67101;DHT22;54019;61.746;16.106;2022-10-13T09:00:22;22.70;35.60
67101;DHT22;54019;61.746;16.106;2022-10-13T09:02:49;22.70;35.90
67101;DHT22;54019;61.746;16.106;2022-10-13T09:05:21;22.70;36.30
67101;DHT22;54019;61.746;16.106;2022-10-13T09:07:51;22.70;36.40
67101;DHT22;54019;61.746;16.106;2022-10-13T09:10:19;22.70;36.40
67101;DHT22;54019;61.746;16.106;2022-10-13T09:12:45;22.70;36.00
67101;DHT22;54019;61.746;16.106;2022-10-13T09:15:12;22.70;35.90
67101;DHT22;54019;61.746;16.106;2022-10-13T09:17:39;22.70;35.90
67101;DHT22;54019;61.746;16.106;2022-10-13T09:20:17;22.70;35.90
67101;DHT22;54019;61.746;16.106;2022-10-13T09:22:44;22.70;36.10
67101;DHT22;54019;61.746;16.106;2022-10-13T09:25:25;22.70;36.40
67101;DHT22;54019;61.746;16.106;2022-10-13T09:27:53;22.70;36.10
67101;DHT22;54019;61.746;16.106;2022-10-13T09:30:27;22.70;36.30
67101;DHT22;54019;61.746;16.106;2022-10-13T09:33:04;22.60;36.40
67101;DHT22;54019;61.746;16.106;2022-10-13T09:35:30;22.60;36.60
67101;DHT22;54019;61.746;16.106;2022-10-13T09:38:03;22.60;36.40
67101;DHT22;54019;61.746;16.106;2022-10-13T09:40:30;22.60;36.50
67101;DHT22;54019;61.746;16.106;2022-10-13T09:42:57;22.60;36.90
67101;DHT22;54019;61.746;16.106;2022-10-13T09:45:25;22.60;36.60
67101;DHT22;54019;61.746;16.106;2022-10-13T09:47:54;22.60;36.60
67101;DHT22;54019;61.746;16.106;2022-10-13T09:50:23;22.60;36.60
67101;DHT22;54019;61.746;16.106;2022-10-13T09:52:49;22.60;36.40
67101;DHT22;54019;61.746;16.106;2022-10-13T09:55:31;22.60;36.60
67101;DHT22;54019;61.746;16.106;2022-10-13T09:58:03;22.60;36.70
67101;DHT22;54019;61.746;16.106;2022-10-13T10:00:31;22.60;36.60
67101;DHT22;54019;61.746;16.106;2022-10-13T10:03:01;22.70;36.60
67101;DHT22;54019;61.746;16.106;2022-10-13T10:05:35;22.60;36.50
67101;DHT22;54019;61.746;16.106;2022-10-13T10:08:10;22.60;36.50
67101;DHT22;54019;61.746;16.106;2022-10-13T10:10:39;22.60;36.20
67101;DHT22;54019;61.746;16.106;2022-10-13T10:13:07;22.60;36.20
67101;DHT22;54019;61.746;16.106;2022-10-13T10:15:42;22.70;36.40
67101;DHT22;54019;61.746;16.106;2022-10-13T10:18:14;22.70;36.20
67101;DHT22;54019;61.746;16.106;2022-10-13T10:20:55;22.70;36.70
67101;DHT22;54019;61.746;16.106;2022-10-13T10:23:31;22.70;36.40
67101;DHT22;54019;61.746;16.106;2022-10-13T10:26:05;22.70;36.50
67101;DHT22;54019;61.746;16.106;2022-10-13T10:28:55;22.70;37.30
67101;DHT22;54019;61.746;16.106;2022-10-13T10:31:33;22.70;36.80
67101;DHT22;54019;61.746;16.106;2022-10-13T10:34:17;22.70;37.00
67101;DHT22;54019;61.746;16.106;2022-10-13T10:36:55;22.70;37.00
67101;DHT22;54019;61.746;16.106;2022-10-13T10:39:29;22.60;37.10
67101;DHT22;54019;61.746;16.106;2022-10-13T10:42:02;22.60;37.40
67101;DHT22;54019;61.746;16.106;2022-10-13T10:44:34;22.60;37.50
67101;DHT22;54019;61.746;16.106;2022-10-13T10:47:04;22.60;37.70
67101;DHT22;54019;61.746;16.106;2022-10-13T10:49:33;22.60;37.90
67101;DHT22;54019;61.746;16.106;2022-10-13T10:52:00;22.60;38.50
67101;DHT22;54019;61.746;16.106;2022-10-13T10:54:34;22.60;38.40
67101;DHT22;54019;61.746;16.106;2022-10-13T10:57:09;22.60;38.70
67101;DHT22;54019;61.746;16.106;2022-10-13T10:59:47;22.60;38.10
67101;DHT22;54019;61.746;16.106;2022-10-13T11:02:26;22.60;38.70
67101;DHT22;54019;61.746;16.106;2022-10-13T11:04:55;22.60;38.50
67101;DHT22;54019;61.746;16.106;2022-10-13T11:07:54;22.60;38.50
67101;DHT22;54019;61.746;16.106;2022-10-13T11:10:21;22.60;38.10
67101;DHT22;54019;61.746;16.106;2022-10-13T11:15:47;22.50;37.20
67101;DHT22;54019;61.746;16.106;2022-10-13T11:21:16;22.50;37.80
67101;DHT22;54019;61.746;16.106;2022-10-13T11:23:47;22.50;37.90
67101;DHT22;54019;61.746;16.106;2022-10-13T11:26:41;22.50;38.30
67101;DHT22;54019;61.746;16.106;2022-10-13T11:29:16;22.50;37.80
67101;DHT22;54019;61.746;16.106;2022-10-13T11:31:52;22.60;37.90
67101;DHT22;54019;61.746;16.106;2022-10-13T11:34:29;22.60;38.10
67101;DHT22;54019;61.746;16.106;2022-10-13T11:36:57;22.70;38.30
67101;DHT22;54019;61.746;16.106;2022-10-13T11:40:00;22.70;37.90
67101;DHT22;54019;61.746;16.106;2022-10-13T11:49:12;22.70;37.80
67101;DHT22;54019;61.746;16.106;2022-10-13T11:52:11;22.70;37.90
67101;DHT22;54019;61.746;16.106;2022-10-13T11:54:47;22.70;37.70
67101;DHT22;54019;61.746;16.106;2022-10-13T11:57:19;22.70;37.60
67101;DHT22;54019;61.746;16.106;2022-10-13T11:59:46;22.80;37.40
67101;DHT22;54019;61.746;16.106;2022-10-13T12:02:13;22.90;37.30
67101;DHT22;54019;61.746;16.106;2022-10-13T12:04:41;22.90;37.20
67101;DHT22;54019;61.746;16.106;2022-10-13T12:07:10;22.90;37.10
67101;DHT22;54019;61.746;16.106;2022-10-13T12:09:46;23.00;37.00
67101;DHT22;54019;61.746;16.106;2022-10-13T12:12:14;22.90;36.70
67101;DHT22;54019;61.746;16.106;2022-10-13T12:14:42;22.90;36.80
67101;DHT22;54019;61.746;16.106;2022-10-13T12:17:20;23.00;36.70
67101;DHT22;54019;61.746;16.106;2022-10-13T12:19:48;23.00;36.50
67101;DHT22;54019;61.746;16.106;2022-10-13T12:22:14;22.90;36.60
67101;DHT22;54019;61.746;16.106;2022-10-13T12:24:40;22.90;36.60
67101;DHT22;54019;61.746;16.106;2022-10-13T12:27:09;22.90;36.60
67101;DHT22;54019;61.746;16.106;2022-10-13T12:29:38;22.90;36.60
67101;DHT22;54019;61.746;16.106;2022-10-13T12:32:17;22.80;36.60
67101;DHT22;54019;61.746;16.106;2022-10-13T12:34:43;22.80;36.70
67101;DHT22;54019;61.746;16.106;2022-10-13T12:37:17;22.80;36.70
67101;DHT22;54019;61.746;16.106;2022-10-13T12:39:46;22.80;36.70
67101;DHT22;54019;61.746;16.106;2022-10-13T12:42:13;22.80;36.80
67101;DHT22;54019;61.746;16.106;2022-10-13T12:44:40;22.80;36.70
67101;DHT22;54019;61.746;16.106;2022-10-13T12:47:35;22.80;36.70
67101;DHT22;54019;61.746;16.106;2022-10-13T12:50:35;22.80;37.10
67101;DHT22;54019;61.746;16.106;2022-10-13T12:53:10;22.80;36.90
67101;DHT22;54019;61.746;16.106;2022-10-13T12:55:49;22.80;36.70
67101;DHT22;54019;61.746;16.106;2022-10-13T12:58:22;22.70;36.60
67101;DHT22;54019;61.746;16.106;2022-10-13T13:00:59;22.70;37.00
67101;DHT22;54019;61.746;16.106;2022-10-13T13:03:29;22.70;36.70
67101;DHT22;54019;61.746;16.106;2022-10-13T13:06:21;22.70;36.60
67101;DHT22;54019;61.746;16.106;2022-10-13T13:09:17;22.70;37.20
67101;DHT22;54019;61.746;16.106;2022-10-13T13:11:44;22.80;37.10
67101;DHT22;54019;61.746;16.106;2022-10-13T13:14:29;22.80;37.10
67101;DHT22;54019;61.746;16.106;2022-10-13T13:17:02;22.80;37.20
67101;DHT22;54019;61.746;16.106;2022-10-13T13:19:30;22.80;36.90
67101;DHT22;54019;61.746;16.106;2022-10-13T13:21:57;22.80;36.70
67101;DHT22;54019;61.746;16.106;2022-10-13T13:24:24;22.80;37.00
67101;DHT22;54019;61.746;16.106;2022-10-13T13:26:50;22.80;36.70
67101;DHT22;54019;61.746;16.106;2022-10-13T13:29:16;22.80;36.70
67101;DHT22;54019;61.746;16.106;2022-10-13T13:31:41;22.80;36.70
67101;DHT22;54019;61.746;16.106;2022-10-13T13:34:07;22.70;36.70
67101;DHT22;54019;61.746;16.106;2022-10-13T13:36:33;22.70;36.50
67101;DHT22;54019;61.746;16.106;2022-10-13T13:38:59;22.70;36.70
67101;DHT22;54019;61.746;16.106;2022-10-13T13:41:26;22.60;36.60
67101;DHT22;54019;61.746;16.106;2022-10-13T13:43:52;22.70;36.50
67101;DHT22;54019;61.746;16.106;2022-10-13T13:46:20;22.70;36.60
67101;DHT22;54019;61.746;16.106;2022-10-13T13:48:46;22.70;36.50
67101;DHT22;54019;61.746;16.106;2022-10-13T13:51:12;22.70;36.80
67101;DHT22;54019;61.746;16.106;2022-10-13T13:53:38;22.80;36.30
67101;DHT22;54019;61.746;16.106;2022-10-13T13:56:04;22.90;36.70
67101;DHT22;54019;61.746;16.106;2022-10-13T13:58:32;22.90;36.70
67101;DHT22;54019;61.746;16.106;2022-10-13T14:00:58;22.90;36.80
67101;DHT22;54019;61.746;16.106;2022-10-13T14:03:24;22.90;36.60
67101;DHT22;54019;61.746;16.106;2022-10-13T14:05:50;22.90;36.50
67101;DHT22;54019;61.746;16.106;2022-10-13T14:08:16;22.90;36.30
67101;DHT22;54019;61.746;16.106;2022-10-13T14:10:42;22.90;36.40
67101;DHT22;54019;61.746;16.106;2022-10-13T14:13:08;22.80;36.40
67101;DHT22;54019;61.746;16.106;2022-10-13T14:15:35;22.80;36.40
67101;DHT22;54019;61.746;16.106;2022-10-13T14:18:02;22.80;36.30
67101;DHT22;54019;61.746;16.106;2022-10-13T14:20:28;22.70;36.20
67101;DHT22;54019;61.746;16.106;2022-10-13T14:22:54;22.70;36.20
67101;DHT22;54019;61.746;16.106;2022-10-13T14:25:20;22.70;36.70
67101;DHT22;54019;61.746;16.106;2022-10-13T14:27:45;22.70;36.90
67101;DHT22;54019;61.746;16.106;2022-10-13T14:30:12;22.70;36.70
67101;DHT22;54019;61.746;16.106;2022-10-13T14:32:40;22.70;36.50
67101;DHT22;54019;61.746;16.106;2022-10-13T14:35:06;22.70;36.70
67101;DHT22;54019;61.746;16.106;2022-10-13T14:37:32;22.60;36.80
67101;DHT22;54019;61.746;16.106;2022-10-13T14:39:58;22.60;36.60
67101;DHT22;54019;61.746;16.106;2022-10-13T14:42:24;22.60;37.00
67101;DHT22;54019;61.746;16.106;2022-10-13T14:44:49;22.70;37.70
67101;DHT22;54019;61.746;16.106;2022-10-13T14:47:15;22.70;37.70
67101;DHT22;54019;61.746;16.106;2022-10-13T14:49:42;22.70;37.70
67101;DHT22;54019;61.746;16.106;2022-10-13T14:52:08;22.80;37.70
67101;DHT22;54019;61.746;16.106;2022-10-13T14:54:34;22.70;37.40
67101;DHT22;54019;61.746;16.106;2022-10-13T14:57:00;22.70;37.30
67101;DHT22;54019;61.746;16.106;2022-10-13T14:59:26;22.70;37.50
67101;DHT22;54019;61.746;16.106;2022-10-13T15:01:52;22.70;37.50
67101;DHT22;54019;61.746;16.106;2022-10-13T15:04:17;22.70;37.30
67101;DHT22;54019;61.746;16.106;2022-10-13T15:06:45;22.80;37.60
67101;DHT22;54019;61.746;16.106;2022-10-13T15:09:11;22.70;37.50
67101;DHT22;54019;61.746;16.106;2022-10-13T15:11:37;22.70;37.40
67101;DHT22;54019;61.746;16.106;2022-10-13T15:14:02;22.70;37.40
67101;DHT22;54019;61.746;16.106;2022-10-13T15:16:29;22.70;37.30
67101;DHT22;54019;61.746;16.106;2022-10-13T15:18:56;22.80;37.40
67101;DHT22;54019;61.746;16.106;2022-10-13T15:21:22;22.80;37.30
67101;DHT22;54019;61.746;16.106;2022-10-13T15:23:50;22.90;37.30
67101;DHT22;54019;61.746;16.106;2022-10-13T15:26:17;22.90;37.20
67101;DHT22;54019;61.746;16.106;2022-10-13T15:28:45;22.90;37.90
67101;DHT22;54019;61.746;16.106;2022-10-13T15:31:12;22.90;37.30
67101;DHT22;54019;61.746;16.106;2022-10-13T15:33:40;23.00;37.10
67101;DHT22;54019;61.746;16.106;2022-10-13T15:36:07;22.90;37.00
67101;DHT22;54019;61.746;16.106;2022-10-13T15:38:32;22.90;37.30